createdAt,value
2022-07-29T00:00:01.691Z,2.00
2022-07-29T00:02:29.170Z,1.77
2022-07-29T00:04:56.002Z,2.20
2022-07-29T00:07:22.709Z,1.80
2022-07-29T00:09:51.811Z,2.05
2022-07-29T00:12:26.307Z,1.60
2022-07-29T00:14:55.760Z,2.08
2022-07-29T00:17:26.213Z,1.73
2022-07-29T00:19:53.017Z,1.65
2022-07-29T00:22:21.025Z,1.73
2022-07-29T00:24:50.971Z,1.70
2022-07-29T00:27:18.655Z,2.03
2022-07-29T00:29:45.697Z,1.88
2022-07-29T00:32:12.642Z,1.95
2022-07-29T00:34:57.813Z,2.40
2022-07-29T00:37:25.196Z,2.25
2022-07-29T00:39:52.039Z,2.17
2022-07-29T00:42:18.829Z,2.50
2022-07-29T00:44:45.571Z,2.85
2022-07-29T00:47:13.383Z,2.28
2022-07-29T00:49:41.984Z,2.55
2022-07-29T00:52:11.273Z,2.55
2022-07-29T00:54:44.354Z,2.33
2022-07-29T00:57:12.915Z,2.40
2022-07-29T00:59:40.436Z,2.85
2022-07-29T01:02:07.245Z,2.50
2022-07-29T01:04:34.461Z,2.25
2022-07-29T01:07:03.572Z,2.80
2022-07-29T01:09:34.304Z,2.53
2022-07-29T01:12:25.527Z,2.75
2022-07-29T01:14:55.195Z,3.22
2022-07-29T01:17:50.367Z,2.83
2022-07-29T01:20:23.168Z,3.05
2022-07-29T01:23:20.411Z,3.17
2022-07-29T01:26:04.041Z,2.95
2022-07-29T01:29:20.739Z,2.97
2022-07-29T01:32:06.755Z,3.33
2022-07-29T01:34:46.592Z,3.25
2022-07-29T01:37:37.994Z,3.08
2022-07-29T01:40:09.520Z,3.55
2022-07-29T01:42:49.589Z,3.80
2022-07-29T01:45:33.887Z,3.92
2022-07-29T01:48:07.814Z,2.97
2022-07-29T01:50:41.221Z,3.75
2022-07-29T01:53:11.471Z,3.00
2022-07-29T01:55:45.507Z,3.15
2022-07-29T01:58:14.605Z,3.13
2022-07-29T02:00:43.911Z,3.17
2022-07-29T02:03:14.038Z,3.90
2022-07-29T02:05:44.912Z,3.33
2022-07-29T02:08:13.973Z,3.67
2022-07-29T02:10:43.203Z,3.40
2022-07-29T02:13:12.259Z,3.15
2022-07-29T02:15:42.690Z,3.38
2022-07-29T02:18:18.215Z,3.97
2022-07-29T02:20:50.347Z,4.10
2022-07-29T02:23:21.939Z,3.00
2022-07-29T02:25:57.818Z,3.85
2022-07-29T02:28:28.552Z,3.38
2022-07-29T02:30:59.807Z,3.78
2022-07-29T02:33:27.968Z,3.85
2022-07-29T02:35:57.337Z,3.65
2022-07-29T02:38:45.014Z,3.60
2022-07-29T02:41:16.680Z,3.65
2022-07-29T02:43:46.059Z,3.92
2022-07-29T02:46:28.243Z,3.60
2022-07-29T02:49:35.844Z,3.97
2022-07-29T02:52:09.488Z,3.78
2022-07-29T02:54:47.025Z,3.60
2022-07-29T02:57:54.448Z,3.65
2022-07-29T03:00:27.895Z,3.72
2022-07-29T03:02:59.679Z,3.30
2022-07-29T03:05:27.154Z,4.07
2022-07-29T03:08:02.249Z,3.30
2022-07-29T03:10:29.514Z,3.30
2022-07-29T03:12:57.447Z,3.85
2022-07-29T03:15:26.910Z,3.55
2022-07-29T03:17:53.928Z,3.00
2022-07-29T03:20:20.987Z,3.20
2022-07-29T03:22:48.051Z,3.30
2022-07-29T03:25:17.193Z,3.55
2022-07-29T03:27:45.001Z,3.63
2022-07-29T03:30:21.617Z,3.10
2022-07-29T03:32:50.032Z,3.45
2022-07-29T03:35:20.331Z,3.92
2022-07-29T03:37:47.805Z,3.08
2022-07-29T03:40:22.883Z,2.97
2022-07-29T03:42:52.119Z,2.90
2022-07-29T03:45:21.346Z,3.05
2022-07-29T03:48:00.600Z,3.40
2022-07-29T03:50:31.568Z,3.10
2022-07-29T03:52:59.121Z,3.22
2022-07-29T03:55:27.529Z,3.00
2022-07-29T03:57:56.332Z,3.45
2022-07-29T04:00:26.513Z,3.35
2022-07-29T04:02:53.231Z,3.70
2022-07-29T04:05:20.177Z,2.50
2022-07-29T04:07:48.611Z,2.85
2022-07-29T04:10:17.836Z,2.78
2022-07-29T04:12:57.591Z,3.30
2022-07-29T04:15:24.406Z,3.08
2022-07-29T04:17:51.427Z,3.13
2022-07-29T04:20:18.358Z,2.88
2022-07-29T04:22:45.068Z,3.40
2022-07-29T04:25:11.815Z,3.35
2022-07-29T04:27:58.557Z,2.70
2022-07-29T04:30:25.341Z,3.20
2022-07-29T04:32:52.032Z,2.80
2022-07-29T04:35:23.132Z,3.33
2022-07-29T04:37:49.851Z,3.42
2022-07-29T04:40:16.712Z,2.90
2022-07-29T04:42:47.234Z,2.90
2022-07-29T04:45:15.049Z,3.53
2022-07-29T04:47:43.157Z,3.28
2022-07-29T04:50:11.033Z,3.72
2022-07-29T04:52:38.281Z,3.63
2022-07-29T04:55:06.518Z,3.90
2022-07-29T04:57:33.769Z,3.33
2022-07-29T05:00:00.652Z,4.00
2022-07-29T05:02:27.497Z,3.63
2022-07-29T05:04:54.267Z,3.97
2022-07-29T05:07:21.059Z,3.08
2022-07-29T05:09:48.065Z,3.53
2022-07-29T05:12:14.853Z,3.20
2022-07-29T05:14:41.756Z,3.50
2022-07-29T05:17:08.488Z,2.88
2022-07-29T05:19:39.639Z,3.05
2022-07-29T05:22:07.031Z,3.53
2022-07-29T05:24:33.811Z,3.10
2022-07-29T05:27:00.514Z,3.40
2022-07-29T05:29:44.638Z,3.42
2022-07-29T05:32:13.481Z,3.35
2022-07-29T05:34:50.119Z,3.38
2022-07-29T05:37:17.423Z,3.90
2022-07-29T05:39:47.452Z,4.03
2022-07-29T05:42:15.874Z,3.10
2022-07-29T05:44:42.636Z,3.50
2022-07-29T05:47:09.653Z,3.35
2022-07-29T05:49:36.416Z,3.47
2022-07-29T05:52:03.469Z,2.85
2022-07-29T05:54:30.249Z,3.30
2022-07-29T05:56:57.264Z,3.72
2022-07-29T05:59:28.342Z,3.00
2022-07-29T06:01:58.074Z,3.22
2022-07-29T06:04:25.063Z,2.80
2022-07-29T06:06:51.802Z,2.70
2022-07-29T06:09:18.601Z,3.22
2022-07-29T06:11:45.594Z,3.13
2022-07-29T06:14:12.393Z,2.75
2022-07-29T06:16:39.244Z,3.25
2022-07-29T06:19:05.992Z,2.85
2022-07-29T06:21:32.792Z,2.70
2022-07-29T06:23:59.546Z,3.03
2022-07-29T06:26:30.977Z,3.17
2022-07-29T06:28:58.726Z,3.20
2022-07-29T06:31:25.774Z,5.75
2022-07-29T06:33:54.679Z,3.80
2022-07-29T06:36:22.973Z,3.20
2022-07-29T06:38:52.298Z,3.03
2022-07-29T06:41:20.444Z,2.95
2022-07-29T06:43:52.571Z,3.42
2022-07-29T06:46:23.931Z,2.53
2022-07-29T06:48:52.514Z,3.10
2022-07-29T06:51:22.444Z,2.95
2022-07-29T06:54:00.581Z,2.78
2022-07-29T06:56:38.573Z,2.33
2022-07-29T06:59:08.846Z,2.30
2022-07-29T07:01:37.990Z,2.90
2022-07-29T07:04:05.002Z,2.45
2022-07-29T07:06:31.763Z,2.47
2022-07-29T07:08:58.511Z,2.50
2022-07-29T07:11:25.277Z,2.65
2022-07-29T07:13:51.978Z,2.67
2022-07-29T07:16:18.844Z,2.90
2022-07-29T07:18:46.229Z,3.05
2022-07-29T07:21:18.861Z,2.50
2022-07-29T07:23:47.113Z,2.70
2022-07-29T07:26:13.867Z,2.65
2022-07-29T07:28:40.626Z,2.72
2022-07-29T07:31:07.359Z,2.13
2022-07-29T07:33:34.061Z,2.97
2022-07-29T07:36:00.930Z,2.38
2022-07-29T07:38:27.812Z,2.83
2022-07-29T07:40:54.551Z,2.20
2022-07-29T07:43:21.351Z,2.40
2022-07-29T07:45:48.241Z,2.50
2022-07-29T07:48:15.136Z,2.78
2022-07-29T07:50:41.940Z,2.85
2022-07-29T07:53:08.843Z,3.08
2022-07-29T07:56:07.968Z,2.88
2022-07-29T07:58:29.053Z,3.05
2022-07-29T08:00:55.794Z,2.25
2022-07-29T08:03:22.585Z,2.60
2022-07-29T08:05:51.542Z,3.25
2022-07-29T08:08:18.912Z,3.40
2022-07-29T08:10:54.703Z,2.95
2022-07-29T08:13:24.182Z,2.65
2022-07-29T08:16:12.254Z,2.60
2022-07-29T08:18:41.664Z,2.55
2022-07-29T08:21:08.433Z,3.40
2022-07-29T08:23:49.647Z,2.50
2022-07-29T08:26:23.623Z,2.15
2022-07-29T08:28:51.806Z,3.17
2022-07-29T08:31:19.118Z,2.28
2022-07-29T08:33:46.047Z,2.63
2022-07-29T08:36:14.033Z,2.40
2022-07-29T08:38:40.783Z,2.80
2022-07-29T08:41:07.706Z,2.35
2022-07-29T08:43:38.170Z,1.90
2022-07-29T08:46:05.025Z,1.80
2022-07-29T08:48:33.385Z,2.17
2022-07-29T08:51:01.550Z,2.10
2022-07-29T08:53:30.018Z,2.08
2022-07-29T08:55:57.870Z,1.67
2022-07-29T08:58:26.404Z,2.10
2022-07-29T09:00:57.385Z,2.10
2022-07-29T09:03:28.391Z,3.30
2022-07-29T09:05:55.393Z,1.70
2022-07-29T09:08:22.410Z,2.50
2022-07-29T09:10:49.529Z,2.17
2022-07-29T09:13:16.251Z,1.77
2022-07-29T09:15:42.980Z,1.60
2022-07-29T09:18:19.483Z,2.20
2022-07-29T09:21:22.306Z,1.80
2022-07-29T09:24:13.947Z,1.88
2022-07-29T09:26:45.778Z,1.90
2022-07-29T09:29:18.516Z,2.00
2022-07-29T09:31:49.615Z,1.77
2022-07-29T09:34:32.284Z,2.40
2022-07-29T09:36:59.270Z,2.30
2022-07-29T09:39:45.061Z,1.70
2022-07-29T09:42:14.119Z,1.80
2022-07-29T09:44:51.423Z,1.63
2022-07-29T09:47:22.647Z,1.40
2022-07-29T09:49:58.734Z,1.65
2022-07-29T09:52:31.002Z,1.90
2022-07-29T09:55:09.431Z,2.58
2022-07-29T09:57:36.242Z,1.83
2022-07-29T10:00:18.962Z,1.83
2022-07-29T10:02:47.610Z,2.50
2022-07-29T10:05:22.003Z,1.23
2022-07-29T10:07:57.917Z,1.50
2022-07-29T10:10:36.897Z,1.40
2022-07-29T10:13:15.206Z,2.40
2022-07-29T10:15:46.243Z,1.60
2022-07-29T10:18:15.157Z,1.60
2022-07-29T10:20:42.537Z,1.63
2022-07-29T10:23:10.418Z,1.65
2022-07-29T10:25:37.890Z,1.95
2022-07-29T10:28:06.743Z,1.50
2022-07-29T10:30:33.765Z,1.58
2022-07-29T10:33:58.132Z,1.67
2022-07-29T10:37:04.878Z,1.60
2022-07-29T10:40:01.879Z,1.60
2022-07-29T10:42:34.268Z,2.10
2022-07-29T10:45:04.890Z,1.42
2022-07-29T10:47:32.116Z,1.85
2022-07-29T10:50:01.841Z,1.45
2022-07-29T10:52:58.428Z,1.58
2022-07-29T10:55:39.241Z,1.80
2022-07-29T10:58:18.856Z,1.70
2022-07-29T11:00:56.389Z,2.05
2022-07-29T11:03:53.748Z,1.95
2022-07-29T11:06:28.207Z,1.60
2022-07-29T11:12:43.550Z,1.70
2022-07-29T11:15:24.990Z,2.00
2022-07-29T11:17:54.800Z,2.33
2022-07-29T11:20:50.030Z,1.55
2022-07-29T11:23:33.533Z,2.13
2022-07-29T11:26:33.432Z,1.88
2022-07-29T11:29:25.531Z,1.45
2022-07-29T11:31:56.924Z,2.15
2022-07-29T11:34:37.977Z,1.60
2022-07-29T11:37:07.733Z,1.90
2022-07-29T11:39:37.735Z,1.67
2022-07-29T11:42:32.426Z,1.30
2022-07-29T11:45:42.100Z,1.52
2022-07-29T11:48:05.414Z,1.80
2022-07-29T11:50:45.953Z,1.70
2022-07-29T11:53:16.184Z,2.08
2022-07-29T11:55:50.928Z,2.60
2022-07-29T11:58:25.158Z,1.98
2022-07-29T12:00:53.228Z,2.30
2022-07-29T12:03:34.796Z,2.17
2022-07-29T12:07:03.291Z,1.67
2022-07-29T12:09:11.194Z,1.50
2022-07-29T12:11:41.485Z,1.70
2022-07-29T12:14:34.483Z,2.10
2022-07-29T12:17:01.741Z,1.85
2022-07-29T12:19:28.590Z,2.03
2022-07-29T12:22:02.337Z,1.90
2022-07-29T12:24:45.042Z,1.70
2022-07-29T12:27:12.834Z,1.90
2022-07-29T12:29:41.984Z,1.83
2022-07-29T12:32:19.552Z,1.83
2022-07-29T12:34:47.191Z,1.85
2022-07-29T12:37:14.036Z,2.03
2022-07-29T12:39:41.030Z,1.90
2022-07-29T12:42:18.763Z,1.92
2022-07-29T12:44:51.342Z,2.45
2022-07-29T12:47:19.450Z,2.72
2022-07-29T12:49:49.146Z,2.00
2022-07-29T12:52:34.850Z,2.03
2022-07-29T12:55:02.626Z,2.63
2022-07-29T12:57:30.356Z,3.47
2022-07-29T13:00:12.062Z,2.00
2022-07-29T13:02:41.675Z,2.03
2022-07-29T13:05:10.220Z,2.35
2022-07-29T13:07:54.937Z,1.80
2022-07-29T13:10:24.371Z,1.65
2022-07-29T13:13:13.264Z,2.03
2022-07-29T13:15:44.537Z,2.13
2022-07-29T13:18:31.179Z,1.98
2022-07-29T13:21:10.718Z,2.00
2022-07-29T13:23:38.336Z,2.50
2022-07-29T13:26:12.729Z,2.72
2022-07-29T13:28:39.455Z,2.28
2022-07-29T13:31:06.316Z,2.85
2022-07-29T13:33:33.046Z,2.22
2022-07-29T13:35:59.826Z,2.75
2022-07-29T13:38:31.055Z,2.63
2022-07-29T13:40:58.833Z,2.08
2022-07-29T13:43:25.622Z,2.15
2022-07-29T13:45:52.974Z,2.78
2022-07-29T13:48:19.801Z,2.60
2022-07-29T13:50:47.612Z,2.50
2022-07-29T13:53:17.734Z,2.95
2022-07-29T13:55:45.257Z,2.75
2022-07-29T13:58:12.051Z,2.55
2022-07-29T14:00:38.809Z,2.70
2022-07-29T14:03:05.575Z,2.53
2022-07-29T14:05:32.319Z,2.72
2022-07-29T14:07:59.191Z,2.55
2022-07-29T14:10:27.050Z,2.60
2022-07-29T14:12:53.820Z,2.28
2022-07-29T14:15:21.244Z,2.45
2022-07-29T14:17:48.080Z,2.53
2022-07-29T14:22:41.903Z,2.60
2022-07-29T14:25:15.158Z,2.50
2022-07-29T14:27:44.597Z,2.20
2022-07-29T14:30:12.389Z,2.63
2022-07-29T14:32:39.099Z,2.42
2022-07-29T14:35:07.032Z,2.22
2022-07-29T14:37:37.583Z,2.80
2022-07-29T14:40:08.832Z,2.50
2022-07-29T14:42:35.692Z,2.97
2022-07-29T14:45:02.427Z,2.47
2022-07-29T14:47:29.218Z,2.28
2022-07-29T14:49:56.386Z,2.10
2022-07-29T14:52:23.202Z,2.50
2022-07-29T14:54:50.106Z,2.80
2022-07-29T14:57:17.438Z,3.50
2022-07-29T14:59:44.226Z,3.53
2022-07-29T15:02:11.048Z,2.60
2022-07-29T15:04:37.868Z,3.10
2022-07-29T15:07:04.767Z,2.40
2022-07-29T15:09:31.552Z,2.78
2022-07-29T15:11:58.740Z,2.70
2022-07-29T15:14:25.691Z,2.70
2022-07-29T15:16:52.748Z,2.28
2022-07-29T15:19:20.399Z,2.95
2022-07-29T15:21:48.762Z,2.83
2022-07-29T15:24:19.956Z,3.05
2022-07-29T15:26:48.543Z,2.53
2022-07-29T15:29:16.163Z,2.90
2022-07-29T15:31:44.076Z,2.90
2022-07-29T15:34:10.823Z,3.15
2022-07-29T15:36:53.691Z,2.88
2022-07-29T15:39:22.133Z,2.55
2022-07-29T15:41:50.390Z,2.53
2022-07-29T15:44:17.666Z,2.05
2022-07-29T15:47:19.799Z,2.55
2022-07-29T15:49:49.379Z,3.42
2022-07-29T15:52:26.024Z,3.00
2022-07-29T15:54:55.155Z,2.88
2022-07-29T15:57:21.954Z,2.72
2022-07-29T15:59:48.794Z,2.58
2022-07-29T16:02:15.614Z,2.45
2022-07-29T16:04:42.318Z,2.67
2022-07-29T16:07:09.069Z,3.30
2022-07-29T16:09:35.780Z,3.45
2022-07-29T16:12:02.600Z,2.63
2022-07-29T16:14:36.808Z,2.60
2022-07-29T16:17:04.611Z,2.83
2022-07-29T16:19:31.443Z,2.55
2022-07-29T16:21:59.911Z,2.80
2022-07-29T16:24:29.731Z,2.65
2022-07-29T16:26:57.240Z,2.20
2022-07-29T16:29:24.394Z,2.67
2022-07-29T16:31:51.329Z,2.70
2022-07-29T16:34:18.077Z,2.50
2022-07-29T16:36:47.724Z,2.50
2022-07-29T16:39:14.754Z,2.47
2022-07-29T16:41:42.224Z,2.33
2022-07-29T16:44:09.014Z,2.70
2022-07-29T16:46:37.403Z,2.22
2022-07-29T16:49:05.935Z,2.20
2022-07-29T16:51:32.795Z,2.33
2022-07-29T16:53:59.558Z,2.50
2022-07-29T16:56:26.235Z,1.92
2022-07-29T16:58:52.973Z,2.50
2022-07-29T17:01:20.147Z,2.08
2022-07-29T17:04:05.745Z,2.65
2022-07-29T17:06:37.700Z,2.25
2022-07-29T17:09:06.854Z,2.35
2022-07-29T17:11:52.325Z,2.33
2022-07-29T17:14:24.035Z,2.40
2022-07-29T17:17:02.902Z,3.42
2022-07-29T17:19:35.661Z,3.60
2022-07-29T17:22:13.010Z,2.90
2022-07-29T17:24:43.089Z,3.53
2022-07-29T17:27:10.451Z,4.03
2022-07-29T17:29:38.770Z,3.22
2022-07-29T17:32:07.484Z,4.10
2022-07-29T17:34:38.480Z,2.97
2022-07-29T17:37:07.103Z,2.25
2022-07-29T17:39:35.441Z,2.70
2022-07-29T17:42:04.389Z,2.33
2022-07-29T17:44:31.230Z,2.97
2022-07-29T17:46:59.513Z,2.53
2022-07-29T17:49:27.215Z,2.83
2022-07-29T17:51:57.645Z,2.42
2022-07-29T17:54:27.549Z,2.60
2022-07-29T17:56:54.348Z,2.47
2022-07-29T17:59:21.764Z,2.30
2022-07-29T18:01:48.550Z,2.13
2022-07-29T18:04:20.060Z,2.22
2022-07-29T18:06:46.882Z,2.30
2022-07-29T18:09:13.589Z,2.47
2022-07-29T18:11:40.332Z,2.53
2022-07-29T18:14:11.223Z,2.53
2022-07-29T18:16:38.395Z,2.78
2022-07-29T18:19:05.307Z,2.45
2022-07-29T18:21:41.090Z,3.45
2022-07-29T18:24:18.722Z,3.40
2022-07-29T18:26:45.441Z,2.70
2022-07-29T18:29:12.350Z,3.78
2022-07-29T18:31:41.059Z,4.35
2022-07-29T18:34:07.911Z,2.90
2022-07-29T18:36:34.604Z,2.10
2022-07-29T18:39:01.311Z,2.22
2022-07-29T18:41:27.993Z,2.53
2022-07-29T18:43:54.727Z,2.63
2022-07-29T18:46:21.520Z,2.33
2022-07-29T18:48:48.337Z,2.78
2022-07-29T18:51:15.212Z,3.08
2022-07-29T18:53:43.211Z,2.90
2022-07-29T18:56:09.887Z,2.45
2022-07-29T18:58:38.230Z,2.20
2022-07-29T19:01:06.312Z,2.50
2022-07-29T19:03:33.040Z,2.03
2022-07-29T19:05:59.745Z,2.58
2022-07-29T19:08:26.472Z,2.58
2022-07-29T19:10:53.359Z,2.60
2022-07-29T19:13:20.114Z,2.53
2022-07-29T19:15:46.990Z,2.20
2022-07-29T19:18:13.812Z,2.25
2022-07-29T19:20:42.048Z,3.40
2022-07-29T19:23:09.208Z,3.22
2022-07-29T19:25:37.348Z,3.60
2022-07-29T19:28:20.057Z,3.75
2022-07-29T19:30:46.886Z,2.88
2022-07-29T19:33:17.319Z,2.55
2022-07-29T19:35:45.261Z,3.10
2022-07-29T19:38:12.863Z,2.83
2022-07-29T19:40:40.114Z,2.85
2022-07-29T19:43:50.864Z,2.50
2022-07-29T19:45:54.006Z,2.10
2022-07-29T19:48:20.733Z,2.58
2022-07-29T19:50:47.450Z,3.20
2022-07-29T19:53:14.258Z,2.00
2022-07-29T19:55:41.943Z,2.35
2022-07-29T19:58:08.887Z,2.70
2022-07-29T20:00:35.582Z,2.38
2022-07-29T20:03:04.593Z,2.22
2022-07-29T20:05:31.616Z,2.92
2022-07-29T20:07:58.577Z,2.40
2022-07-29T20:10:25.557Z,2.10
2022-07-29T20:12:55.074Z,2.60
2022-07-29T20:15:22.357Z,2.20
2022-07-29T20:17:50.333Z,2.22
2022-07-29T20:20:19.600Z,2.20
2022-07-29T20:22:46.338Z,2.15
2022-07-29T20:25:15.278Z,1.73
2022-07-29T20:27:42.841Z,2.10
2022-07-29T20:30:13.198Z,1.90
2022-07-29T20:32:41.325Z,1.90
2022-07-29T20:35:09.906Z,1.83
2022-07-29T20:37:56.322Z,2.13
2022-07-29T20:40:25.674Z,2.20
2022-07-29T20:42:53.802Z,1.70
2022-07-29T20:45:21.063Z,2.50
2022-07-29T20:47:47.968Z,2.00
2022-07-29T20:50:14.920Z,2.13
2022-07-29T20:52:43.307Z,3.00
2022-07-29T20:55:10.595Z,2.58
2022-07-29T20:57:39.106Z,2.33
2022-07-29T21:00:07.753Z,2.72
2022-07-29T21:02:34.768Z,2.40
2022-07-29T21:05:01.523Z,2.08
2022-07-29T21:07:28.275Z,2.47
2022-07-29T21:09:54.952Z,2.20
2022-07-29T21:12:22.320Z,1.80
2022-07-29T21:14:49.393Z,2.17
2022-07-29T21:17:17.462Z,2.40
2022-07-29T21:19:47.945Z,2.42
2022-07-29T21:22:14.692Z,1.77
2022-07-29T21:24:41.566Z,2.17
2022-07-29T21:27:27.280Z,2.75
2022-07-29T21:29:54.404Z,2.30
2022-07-29T21:32:29.527Z,2.28
2022-07-29T21:34:58.175Z,2.70
2022-07-29T21:37:25.326Z,2.55
2022-07-29T21:39:52.109Z,3.05
2022-07-29T21:42:18.939Z,2.58
2022-07-29T21:44:45.692Z,1.92
2022-07-29T21:47:12.763Z,2.28
2022-07-29T21:49:39.944Z,2.13
2022-07-29T21:52:07.899Z,6.45
2022-07-29T21:54:35.135Z,2.58
2022-07-29T21:57:02.011Z,1.80
2022-07-29T21:59:29.370Z,2.03
2022-07-29T22:01:56.354Z,1.73
2022-07-29T22:04:23.207Z,2.30
2022-07-29T22:06:50.080Z,1.90
2022-07-29T22:09:16.824Z,2.10
2022-07-29T22:11:43.660Z,2.03
2022-07-29T22:14:10.477Z,2.03
2022-07-29T22:16:37.330Z,2.72
2022-07-29T22:19:04.465Z,2.03
2022-07-29T22:21:31.458Z,2.08
2022-07-29T22:23:58.341Z,2.13
2022-07-29T22:26:25.105Z,3.35
2022-07-29T22:28:51.949Z,2.42
2022-07-29T22:31:18.894Z,2.47
2022-07-29T22:33:46.183Z,5.63
2022-07-29T22:36:12.914Z,2.35
2022-07-29T22:38:39.836Z,3.08
2022-07-29T22:41:06.613Z,3.78
2022-07-29T22:43:34.039Z,2.47
2022-07-29T22:46:01.026Z,2.63
2022-07-29T22:48:28.049Z,3.67
2022-07-29T22:50:54.816Z,5.78
2022-07-29T22:53:22.081Z,4.65
2022-07-29T22:55:48.829Z,3.35
2022-07-29T22:58:15.498Z,2.58
2022-07-29T23:00:42.270Z,2.53
2022-07-29T23:03:09.029Z,3.05
2022-07-29T23:05:35.846Z,2.45
2022-07-29T23:08:02.740Z,2.95
2022-07-29T23:10:29.632Z,2.08
2022-07-29T23:12:56.421Z,2.25
2022-07-29T23:15:24.465Z,2.10
2022-07-29T23:17:51.196Z,2.08
2022-07-29T23:20:18.301Z,1.67
2022-07-29T23:22:45.305Z,2.15
2022-07-29T23:25:12.107Z,2.42
2022-07-29T23:27:38.936Z,1.70
2022-07-29T23:30:06.838Z,1.90
2022-07-29T23:32:33.557Z,2.00
2022-07-29T23:35:00.782Z,2.03
2022-07-29T23:37:27.755Z,2.03
2022-07-29T23:39:55.414Z,2.05
2022-07-29T23:42:22.343Z,2.30
2022-07-29T23:44:49.130Z,1.70
2022-07-29T23:47:15.861Z,2.50
2022-07-29T23:49:42.558Z,1.98
2022-07-29T23:52:09.410Z,2.30
2022-07-29T23:54:36.126Z,1.90
2022-07-29T23:57:03.409Z,2.25
2022-07-29T23:59:30.264Z,2.20
